createdAt,value
2017-05-26T00:00:01.071Z,89.20
2017-05-26T00:02:29.140Z,89.40
2017-05-26T00:04:57.557Z,89.40
2017-05-26T00:07:25.214Z,89.30
2017-05-26T00:09:52.884Z,89.70
2017-05-26T00:12:20.534Z,89.90
2017-05-26T00:14:48.589Z,89.70
2017-05-26T00:17:16.238Z,89.90
2017-05-26T00:19:43.896Z,89.60
2017-05-26T00:22:11.572Z,90.10
2017-05-26T00:24:39.994Z,90.30
2017-05-26T00:27:08.036Z,90.30
2017-05-26T00:29:35.697Z,89.90
2017-05-26T00:32:03.496Z,90.30
2017-05-26T00:34:31.178Z,90.20
2017-05-26T00:36:58.836Z,89.80
2017-05-26T00:39:26.793Z,89.90
2017-05-26T00:41:54.449Z,90.10
2017-05-26T00:44:22.110Z,90.10
2017-05-26T00:46:50.028Z,89.80
2017-05-26T00:49:18.538Z,90.10
2017-05-26T00:51:46.563Z,90.10
2017-05-26T00:54:14.214Z,90.00
2017-05-26T00:56:41.865Z,90.40
2017-05-26T00:59:09.552Z,90.80
2017-05-26T01:01:37.211Z,90.80
2017-05-26T01:04:05.288Z,90.90
2017-05-26T01:06:32.946Z,90.80
2017-05-26T01:09:00.600Z,90.70
2017-05-26T01:11:28.270Z,90.80
2017-05-26T01:13:55.924Z,91.40
2017-05-26T01:16:23.954Z,91.00
2017-05-26T01:18:51.594Z,90.90
2017-05-26T01:21:19.345Z,91.00
2017-05-26T01:23:47.292Z,90.40
2017-05-26T01:26:15.711Z,91.00
2017-05-26T01:28:43.371Z,91.00
2017-05-26T01:31:11.374Z,90.90
2017-05-26T01:33:40.162Z,91.20
2017-05-26T01:36:07.810Z,91.60
2017-05-26T01:38:35.489Z,91.50
2017-05-26T01:41:03.134Z,92.00
2017-05-26T01:43:31.160Z,91.60
2017-05-26T01:45:58.833Z,91.90
2017-05-26T01:48:26.562Z,91.90
2017-05-26T01:50:54.232Z,92.00
2017-05-26T01:53:21.906Z,91.30
2017-05-26T01:55:49.877Z,90.80
2017-05-26T01:58:17.532Z,91.00
2017-05-26T02:00:45.944Z,92.40
2017-05-26T02:03:13.633Z,92.40
2017-05-26T02:05:42.046Z,91.80
2017-05-26T02:08:10.045Z,91.60
2017-05-26T02:10:37.706Z,91.90
2017-05-26T02:13:06.120Z,91.00
2017-05-26T02:15:34.565Z,91.00
2017-05-26T02:18:02.221Z,91.00
2017-05-26T02:20:30.345Z,90.90
2017-05-26T02:22:57.993Z,91.00
2017-05-26T02:25:26.411Z,91.10
2017-05-26T02:27:54.090Z,91.10
2017-05-26T02:30:21.736Z,91.50
2017-05-26T02:32:49.705Z,91.40
2017-05-26T02:35:17.357Z,90.20
2017-05-26T02:37:45.043Z,90.00
2017-05-26T02:40:12.721Z,90.20
2017-05-26T02:42:40.365Z,90.60
2017-05-26T02:45:08.330Z,91.10
2017-05-26T02:47:35.990Z,91.40
2017-05-26T02:50:03.641Z,90.80
2017-05-26T02:52:31.316Z,90.60
2017-05-26T02:54:59.733Z,91.00
2017-05-26T02:57:27.686Z,91.00
2017-05-26T02:59:55.338Z,91.40
2017-05-26T03:02:23.000Z,91.70
2017-05-26T03:04:50.684Z,91.20
2017-05-26T03:07:18.336Z,90.50
2017-05-26T03:09:46.349Z,90.80
2017-05-26T03:12:14.021Z,91.00
2017-05-26T03:14:41.671Z,90.80
2017-05-26T03:17:09.352Z,91.20
2017-05-26T03:19:37.009Z,91.40
2017-05-26T03:22:05.796Z,91.10
2017-05-26T03:24:33.454Z,91.10
2017-05-26T03:27:01.107Z,91.50
2017-05-26T03:29:28.787Z,91.90
2017-05-26T03:31:56.437Z,91.70
2017-05-26T03:34:24.435Z,91.60
2017-05-26T03:36:52.091Z,91.80
2017-05-26T03:39:20.517Z,92.00
2017-05-26T03:41:48.202Z,92.00
2017-05-26T03:44:15.862Z,92.00
2017-05-26T03:46:43.830Z,92.00
2017-05-26T03:49:11.497Z,92.10
2017-05-26T03:51:39.154Z,92.10
2017-05-26T03:54:07.593Z,91.80
2017-05-26T03:56:35.251Z,91.80
2017-05-26T03:59:03.193Z,91.80
2017-05-26T04:01:30.847Z,90.60
2017-05-26T04:03:58.496Z,91.00
2017-05-26T04:06:26.161Z,90.90
2017-05-26T04:08:53.819Z,90.90
2017-05-26T04:11:21.793Z,90.80
2017-05-26T04:13:49.445Z,90.80
2017-05-26T04:16:17.102Z,89.80
2017-05-26T04:18:44.798Z,88.30
2017-05-26T04:21:13.004Z,87.60
2017-05-26T04:23:41.050Z,87.60
2017-05-26T04:26:08.813Z,88.40
2017-05-26T04:28:36.569Z,88.20
2017-05-26T04:31:04.256Z,88.50
2017-05-26T04:33:32.690Z,88.10
2017-05-26T04:36:00.630Z,88.10
2017-05-26T04:38:28.289Z,86.30
2017-05-26T04:40:55.956Z,84.80
2017-05-26T04:43:23.721Z,83.90
2017-05-26T04:45:52.008Z,82.40
2017-05-26T04:48:20.007Z,81.40
2017-05-26T04:50:48.416Z,80.80
2017-05-26T04:53:16.846Z,81.40
2017-05-26T04:55:44.533Z,80.70
2017-05-26T04:58:12.923Z,80.40
2017-05-26T05:00:40.871Z,80.30
2017-05-26T05:03:08.541Z,80.70
2017-05-26T05:05:36.201Z,79.30
2017-05-26T05:08:06.010Z,79.10
2017-05-26T05:10:34.433Z,79.70
2017-05-26T05:13:02.488Z,79.60
2017-05-26T05:15:30.902Z,80.40
2017-05-26T05:17:59.444Z,80.40
2017-05-26T05:20:27.124Z,79.20
2017-05-26T05:22:55.879Z,76.30
2017-05-26T05:25:25.305Z,76.70
2017-05-26T05:27:53.965Z,75.30
2017-05-26T05:30:22.405Z,75.30
2017-05-26T05:32:51.810Z,75.20
2017-05-26T05:35:20.274Z,73.60
2017-05-26T05:37:48.276Z,72.90
2017-05-26T05:40:15.933Z,71.60
2017-05-26T05:42:43.710Z,70.80
2017-05-26T05:45:11.580Z,71.20
2017-05-26T05:47:39.641Z,72.70
2017-05-26T05:50:07.663Z,72.00
2017-05-26T05:52:35.322Z,73.50
2017-05-26T05:55:03.017Z,74.60
2017-05-26T05:57:30.900Z,75.10
2017-05-26T05:59:59.421Z,73.90
2017-05-26T06:02:27.394Z,73.90
2017-05-26T06:04:55.449Z,71.70
2017-05-26T06:07:23.117Z,71.40
2017-05-26T06:09:50.794Z,66.80
2017-05-26T06:12:18.725Z,62.50
2017-05-26T06:14:46.660Z,58.40
2017-05-26T06:17:14.285Z,56.70
2017-05-26T06:19:41.913Z,52.90
2017-05-26T06:22:09.717Z,51.10
2017-05-26T06:24:38.122Z,48.70
2017-05-26T06:27:06.605Z,48.70
2017-05-26T06:29:34.988Z,43.00
2017-05-26T06:32:02.878Z,42.90
2017-05-26T06:34:31.338Z,43.30
2017-05-26T06:36:58.966Z,42.80
2017-05-26T06:39:26.913Z,42.10
2017-05-26T06:41:55.337Z,44.20
2017-05-26T06:44:23.733Z,43.10
2017-05-26T06:46:51.386Z,43.00
2017-05-26T06:49:19.030Z,46.80
2017-05-26T06:51:46.956Z,49.20
2017-05-26T06:54:14.579Z,51.80
2017-05-26T06:56:42.972Z,50.80
2017-05-26T06:59:10.613Z,50.80
2017-05-26T07:01:38.327Z,51.80
2017-05-26T07:04:06.346Z,50.60
2017-05-26T07:06:33.981Z,50.80
2017-05-26T07:09:01.665Z,46.70
2017-05-26T07:11:29.347Z,44.00
2017-05-26T07:13:57.738Z,41.30
2017-05-26T07:16:25.697Z,41.40
2017-05-26T07:18:53.329Z,39.70
2017-05-26T07:21:21.722Z,39.80
2017-05-26T07:23:49.376Z,39.80
2017-05-26T07:26:16.993Z,38.20
2017-05-26T07:28:44.955Z,37.50
2017-05-26T07:31:13.339Z,35.20
2017-05-26T07:33:40.989Z,35.20
2017-05-26T07:36:08.649Z,34.70
2017-05-26T07:38:36.275Z,35.20
2017-05-26T07:41:04.211Z,34.30
2017-05-26T07:43:31.898Z,34.40
2017-05-26T07:45:59.639Z,36.30
2017-05-26T07:48:27.287Z,38.60
2017-05-26T07:50:54.909Z,40.00
2017-05-26T07:53:22.869Z,39.50
2017-05-26T07:55:50.636Z,37.50
2017-05-26T07:58:19.201Z,41.90
2017-05-26T08:00:46.884Z,41.90
2017-05-26T08:03:14.522Z,44.10
2017-05-26T08:05:42.516Z,42.10
2017-05-26T08:08:10.152Z,40.60
2017-05-26T08:10:37.821Z,39.20
2017-05-26T08:13:05.621Z,39.40
2017-05-26T08:15:33.237Z,37.50
2017-05-26T08:18:01.171Z,35.60
2017-05-26T08:20:29.561Z,37.00
2017-05-26T08:22:57.222Z,37.10
2017-05-26T08:25:25.641Z,39.60
2017-05-26T08:27:53.277Z,39.50
2017-05-26T08:30:21.245Z,38.00
2017-05-26T08:32:48.866Z,39.10
2017-05-26T08:35:16.500Z,39.60
2017-05-26T08:37:44.154Z,39.00
2017-05-26T08:40:11.794Z,40.00
2017-05-26T08:42:39.802Z,43.00
2017-05-26T08:45:07.534Z,39.90
2017-05-26T08:47:35.165Z,40.50
2017-05-26T08:50:02.851Z,41.80
2017-05-26T08:52:30.522Z,38.60
2017-05-26T08:54:58.205Z,36.10
2017-05-26T08:57:26.852Z,36.80
2017-05-26T08:59:54.477Z,36.80
2017-05-26T09:02:22.120Z,36.10
2017-05-26T09:04:50.903Z,36.10
2017-05-26T09:07:19.336Z,33.60
2017-05-26T09:09:47.806Z,32.30
2017-05-26T09:12:15.482Z,32.30
2017-05-26T09:14:43.117Z,35.70
2017-05-26T09:17:11.073Z,37.80
2017-05-26T09:19:38.738Z,36.70
2017-05-26T09:22:06.489Z,39.30
2017-05-26T09:24:34.948Z,40.40
2017-05-26T09:27:03.107Z,40.40
2017-05-26T09:29:31.997Z,40.10
2017-05-26T09:32:00.428Z,36.20
2017-05-26T09:34:28.766Z,36.10
2017-05-26T09:36:56.506Z,36.50
2017-05-26T09:39:24.125Z,34.10
2017-05-26T09:41:52.829Z,31.20
2017-05-26T09:44:20.569Z,30.70
2017-05-26T09:46:48.205Z,31.90
2017-05-26T09:49:15.848Z,32.00
2017-05-26T09:51:43.477Z,32.00
2017-05-26T09:54:11.465Z,34.20
2017-05-26T09:56:39.087Z,35.70
2017-05-26T09:59:06.713Z,35.10
2017-05-26T10:01:34.357Z,35.70
2017-05-26T10:04:01.981Z,36.00
2017-05-26T10:06:30.388Z,33.80
2017-05-26T10:08:58.017Z,35.30
2017-05-26T10:11:25.650Z,35.10
2017-05-26T10:13:53.316Z,37.00
2017-05-26T10:16:21.051Z,36.90
2017-05-26T10:18:48.996Z,35.00
2017-05-26T10:21:16.622Z,36.50
2017-05-26T10:23:45.032Z,36.60
2017-05-26T10:26:12.699Z,36.50
2017-05-26T10:28:40.325Z,36.90
2017-05-26T10:31:09.040Z,35.90
2017-05-26T10:33:36.658Z,35.80
2017-05-26T10:36:04.341Z,35.10
2017-05-26T10:38:32.005Z,33.60
2017-05-26T10:40:59.621Z,33.30
2017-05-26T10:43:27.598Z,32.70
2017-05-26T10:45:55.221Z,33.80
2017-05-26T10:48:22.909Z,34.50
2017-05-26T10:50:50.544Z,35.20
2017-05-26T10:53:18.226Z,36.10
2017-05-26T10:55:46.222Z,35.80
2017-05-26T10:58:13.840Z,35.10
2017-05-26T11:00:41.453Z,34.40
2017-05-26T11:03:09.093Z,32.90
2017-05-26T11:05:36.744Z,33.30
2017-05-26T11:08:04.998Z,35.40
2017-05-26T11:10:32.717Z,34.40
2017-05-26T11:13:00.391Z,34.10
2017-05-26T11:15:28.037Z,33.20
2017-05-26T11:17:55.661Z,31.60
2017-05-26T11:20:23.694Z,33.10
2017-05-26T11:22:51.317Z,32.50
2017-05-26T11:25:19.025Z,32.20
2017-05-26T11:27:46.713Z,33.40
2017-05-26T11:30:15.169Z,34.10
2017-05-26T11:32:43.167Z,34.10
2017-05-26T11:35:10.799Z,33.50
2017-05-26T11:37:38.422Z,34.60
2017-05-26T11:40:06.070Z,35.00
2017-05-26T11:42:34.475Z,34.20
2017-05-26T11:45:02.401Z,34.20
2017-05-26T11:47:30.024Z,33.10
2017-05-26T11:49:58.413Z,36.30
2017-05-26T11:52:26.070Z,36.30
2017-05-26T11:54:53.698Z,36.50
2017-05-26T11:57:21.709Z,36.80
2017-05-26T11:59:50.110Z,37.50
2017-05-26T12:02:17.745Z,37.40
2017-05-26T12:04:45.402Z,39.10
2017-05-26T12:07:13.794Z,38.30
2017-05-26T12:09:42.468Z,37.80
2017-05-26T12:12:10.850Z,38.30
2017-05-26T12:14:39.234Z,39.60
2017-05-26T12:17:07.694Z,38.80
2017-05-26T12:19:35.317Z,38.80
2017-05-26T12:22:03.262Z,40.80
2017-05-26T12:24:31.680Z,38.10
2017-05-26T12:26:59.307Z,38.10
2017-05-26T12:29:26.963Z,38.40
2017-05-26T12:31:55.350Z,38.10
2017-05-26T12:34:23.276Z,38.10
2017-05-26T12:36:50.901Z,38.00
2017-05-26T12:39:18.524Z,35.40
2017-05-26T12:41:46.205Z,36.60
2017-05-26T12:44:14.014Z,36.30
2017-05-26T12:46:41.964Z,39.00
2017-05-26T12:49:09.582Z,35.00
2017-05-26T12:51:37.210Z,35.60
2017-05-26T12:54:04.874Z,35.30
2017-05-26T12:56:32.497Z,33.80
2017-05-26T12:59:01.216Z,34.10
2017-05-26T13:01:28.837Z,34.30
2017-05-26T13:03:56.455Z,34.10
2017-05-26T13:06:24.110Z,33.10
2017-05-26T13:08:51.735Z,33.30
2017-05-26T13:11:19.693Z,34.40
2017-05-26T13:13:47.321Z,33.90
2017-05-26T13:16:14.950Z,33.30
2017-05-26T13:18:42.608Z,34.10
2017-05-26T13:21:10.256Z,33.40
2017-05-26T13:23:38.216Z,32.30
2017-05-26T13:26:05.836Z,32.40
2017-05-26T13:28:33.586Z,33.50
2017-05-26T13:31:01.257Z,34.70
2017-05-26T13:33:28.908Z,35.70
2017-05-26T13:35:56.879Z,34.40
2017-05-26T13:38:24.522Z,35.10
2017-05-26T13:40:52.156Z,35.70
2017-05-26T13:43:19.861Z,34.90
2017-05-26T13:45:48.269Z,36.70
2017-05-26T13:48:16.249Z,36.70
2017-05-26T13:50:43.873Z,35.20
2017-05-26T13:53:11.501Z,34.10
2017-05-26T13:55:39.332Z,34.10
2017-05-26T13:58:07.050Z,34.30
2017-05-26T14:00:35.243Z,35.60
2017-05-26T14:03:02.881Z,35.90
2017-05-26T14:05:30.517Z,35.80
2017-05-26T14:07:58.178Z,35.70
2017-05-26T14:10:25.805Z,36.10
2017-05-26T14:12:53.853Z,36.40
2017-05-26T14:15:22.246Z,38.40
2017-05-26T14:17:49.884Z,38.40
2017-05-26T14:20:18.325Z,37.70
2017-05-26T14:22:45.957Z,37.60
2017-05-26T14:25:13.882Z,37.60
2017-05-26T14:27:41.518Z,37.30
2017-05-26T14:30:09.914Z,36.40
2017-05-26T14:32:37.588Z,36.40
2017-05-26T14:35:05.221Z,37.40
2017-05-26T14:37:33.129Z,36.80
2017-05-26T14:40:00.760Z,35.90
2017-05-26T14:42:29.238Z,35.50
2017-05-26T14:44:56.904Z,35.30
2017-05-26T14:47:24.566Z,35.20
2017-05-26T14:49:52.507Z,35.90
2017-05-26T14:52:20.127Z,35.60
2017-05-26T14:54:47.761Z,36.00
2017-05-26T14:57:16.197Z,35.80
2017-05-26T14:59:43.823Z,35.80
2017-05-26T15:02:11.774Z,34.80
2017-05-26T15:04:39.398Z,34.30
2017-05-26T15:07:07.025Z,32.80
2017-05-26T15:09:34.690Z,34.30
2017-05-26T15:12:02.326Z,34.00
2017-05-26T15:14:30.318Z,33.60
2017-05-26T15:16:57.951Z,32.90
2017-05-26T15:19:25.580Z,34.60
2017-05-26T15:21:53.229Z,34.40
2017-05-26T15:24:20.848Z,35.40
2017-05-26T15:26:49.534Z,33.20
2017-05-26T15:29:17.314Z,33.20
2017-05-26T15:31:44.937Z,33.00
2017-05-26T15:34:12.586Z,34.10
2017-05-26T15:36:40.220Z,34.20
2017-05-26T15:39:08.189Z,34.70
2017-05-26T15:41:35.813Z,33.80
2017-05-26T15:44:03.439Z,33.90
2017-05-26T15:46:31.133Z,33.50
2017-05-26T15:48:59.549Z,32.50
2017-05-26T15:51:27.547Z,32.50
2017-05-26T15:53:55.181Z,32.20
2017-05-26T15:56:22.837Z,33.20
2017-05-26T15:58:50.500Z,32.70
2017-05-26T16:01:18.153Z,32.20
2017-05-26T16:03:46.549Z,33.10
2017-05-26T16:06:14.496Z,33.10
2017-05-26T16:08:42.131Z,34.00
2017-05-26T16:11:09.755Z,34.50
2017-05-26T16:13:38.453Z,35.20
2017-05-26T16:16:06.082Z,35.10
2017-05-26T16:18:33.736Z,35.80
2017-05-26T16:21:01.376Z,36.00
2017-05-26T16:23:30.761Z,37.00
2017-05-26T16:25:58.695Z,37.00
2017-05-26T16:28:26.320Z,37.20
2017-05-26T16:30:53.952Z,36.40
2017-05-26T16:33:22.366Z,35.10
2017-05-26T16:35:49.988Z,35.10
2017-05-26T16:38:17.981Z,35.40
2017-05-26T16:40:46.370Z,34.70
2017-05-26T16:43:13.996Z,34.70
2017-05-26T16:45:41.644Z,33.20
2017-05-26T16:48:10.083Z,34.80
2017-05-26T16:50:38.007Z,35.50
2017-05-26T16:53:05.636Z,35.70
2017-05-26T16:55:33.257Z,36.20
2017-05-26T16:58:00.909Z,35.60
2017-05-26T17:00:28.530Z,35.90
2017-05-26T17:02:56.566Z,36.20
2017-05-26T17:05:24.188Z,35.20
2017-05-26T17:07:51.829Z,35.80
2017-05-26T17:10:19.480Z,36.30
2017-05-26T17:12:47.110Z,35.80
2017-05-26T17:15:15.101Z,37.80
2017-05-26T17:17:43.492Z,37.90
2017-05-26T17:20:11.881Z,37.10
2017-05-26T17:22:39.521Z,37.10
2017-05-26T17:25:07.154Z,37.10
2017-05-26T17:27:35.849Z,36.80
2017-05-26T17:30:04.227Z,36.80
2017-05-26T17:32:31.885Z,36.80
2017-05-26T17:34:59.568Z,38.00
2017-05-26T17:37:27.969Z,37.50
2017-05-26T17:39:56.675Z,37.80
2017-05-26T17:42:24.308Z,37.70
2017-05-26T17:44:51.952Z,37.90
2017-05-26T17:47:20.374Z,38.30
2017-05-26T17:49:48.781Z,39.60
2017-05-26T17:52:16.700Z,39.50
2017-05-26T17:54:45.086Z,38.80
2017-05-26T17:57:12.722Z,38.80
2017-05-26T17:59:41.136Z,38.80
2017-05-26T18:02:08.826Z,38.80
2017-05-26T18:04:36.802Z,39.20
2017-05-26T18:07:04.429Z,39.70
2017-05-26T18:09:32.834Z,40.60
2017-05-26T18:12:00.481Z,40.50
2017-05-26T18:14:28.195Z,40.20
2017-05-26T18:16:56.100Z,40.80
2017-05-26T18:19:23.720Z,41.80
2017-05-26T18:21:51.361Z,42.70
2017-05-26T18:24:19.056Z,43.40
2017-05-26T18:26:47.477Z,42.40
2017-05-26T18:29:15.729Z,42.40
2017-05-26T18:31:43.394Z,43.30
2017-05-26T18:34:11.067Z,44.90
2017-05-26T18:36:38.817Z,45.70
2017-05-26T18:39:06.499Z,46.80
2017-05-26T18:41:34.460Z,48.10
2017-05-26T18:44:02.108Z,48.70
2017-05-26T18:46:29.768Z,49.00
2017-05-26T18:48:57.442Z,49.50
2017-05-26T18:51:25.092Z,50.20
2017-05-26T18:53:53.222Z,50.40
2017-05-26T18:56:20.864Z,50.90
2017-05-26T18:58:48.523Z,51.80
2017-05-26T19:01:16.207Z,52.20
2017-05-26T19:03:43.885Z,52.70
2017-05-26T19:06:11.877Z,53.70
2017-05-26T19:08:39.528Z,53.90
2017-05-26T19:11:08.040Z,55.60
2017-05-26T19:13:35.908Z,56.20
2017-05-26T19:16:04.348Z,56.30
2017-05-26T19:18:32.307Z,56.30
2017-05-26T19:21:00.721Z,57.20
2017-05-26T19:23:28.364Z,57.20
2017-05-26T19:25:56.850Z,58.40
2017-05-26T19:28:24.539Z,58.40
2017-05-26T19:30:52.481Z,59.10
2017-05-26T19:33:20.144Z,59.50
2017-05-26T19:35:48.558Z,60.50
2017-05-26T19:38:16.229Z,60.40
2017-05-26T19:40:43.872Z,61.00
2017-05-26T19:43:12.629Z,62.30
2017-05-26T19:45:41.053Z,62.90
2017-05-26T19:48:08.718Z,62.80
2017-05-26T19:50:36.398Z,63.90
2017-05-26T19:53:04.052Z,65.10
2017-05-26T19:55:32.770Z,66.40
2017-05-26T19:58:00.421Z,66.30
2017-05-26T20:00:28.124Z,67.50
2017-05-26T20:02:56.570Z,68.20
2017-05-26T20:05:24.222Z,68.20
2017-05-26T20:07:52.269Z,68.90
2017-05-26T20:10:19.935Z,69.60
2017-05-26T20:12:47.593Z,70.30
2017-05-26T20:15:15.266Z,70.80
2017-05-26T20:17:42.913Z,71.70
2017-05-26T20:20:11.695Z,73.70
2017-05-26T20:22:40.253Z,73.70
2017-05-26T20:25:07.897Z,74.70
2017-05-26T20:27:36.346Z,73.50
2017-05-26T20:30:04.761Z,73.70
2017-05-26T20:32:33.468Z,73.80
2017-05-26T20:35:01.252Z,73.80
2017-05-26T20:37:28.920Z,74.70
2017-05-26T20:39:56.601Z,75.70
2017-05-26T20:42:25.025Z,76.70
2017-05-26T20:44:53.006Z,76.80
2017-05-26T20:47:20.660Z,77.40
2017-05-26T20:49:48.316Z,78.00
2017-05-26T20:52:15.990Z,78.50
2017-05-26T20:54:43.648Z,78.90
2017-05-26T20:57:12.361Z,79.50
2017-05-26T20:59:40.018Z,79.50
2017-05-26T21:02:07.678Z,80.10
2017-05-26T21:04:36.138Z,80.90
2017-05-26T21:07:03.868Z,80.90
2017-05-26T21:09:31.881Z,80.60
2017-05-26T21:11:59.596Z,80.80
2017-05-26T21:14:28.216Z,81.80
2017-05-26T21:16:55.914Z,81.60
2017-05-26T21:19:23.561Z,81.90
2017-05-26T21:21:52.354Z,81.90
2017-05-26T21:24:20.022Z,81.90
2017-05-26T21:26:48.436Z,81.90
2017-05-26T21:29:16.894Z,82.50
2017-05-26T21:31:44.546Z,82.80
2017-05-26T21:34:13.348Z,83.60
2017-05-26T21:36:40.995Z,83.60
2017-05-26T21:39:08.655Z,83.90
2017-05-26T21:41:36.370Z,84.20
2017-05-26T21:44:04.786Z,84.50
2017-05-26T21:46:32.873Z,84.50
2017-05-26T21:49:01.325Z,85.80
2017-05-26T21:51:29.744Z,85.40
2017-05-26T21:53:57.425Z,85.40
2017-05-26T21:56:25.079Z,85.20
2017-05-26T21:58:53.053Z,84.50
2017-05-26T22:01:20.703Z,84.10
2017-05-26T22:03:48.362Z,84.30
2017-05-26T22:06:16.036Z,84.30
2017-05-26T22:08:43.685Z,84.40
2017-05-26T22:11:11.700Z,84.90
2017-05-26T22:13:39.378Z,85.80
2017-05-26T22:16:07.048Z,85.60
2017-05-26T22:18:34.731Z,85.50
2017-05-26T22:21:03.144Z,86.40
2017-05-26T22:23:31.156Z,86.40
2017-05-26T22:25:58.808Z,86.70
2017-05-26T22:28:27.227Z,87.40
2017-05-26T22:30:54.904Z,86.70
2017-05-26T22:33:23.325Z,86.90
2017-05-26T22:35:51.332Z,86.90
2017-05-26T22:38:19.092Z,87.50
2017-05-26T22:40:47.508Z,88.30
2017-05-26T22:43:15.181Z,88.30
2017-05-26T22:45:42.835Z,88.90
2017-05-26T22:48:10.802Z,88.90
2017-05-26T22:50:38.453Z,88.80
2017-05-26T22:53:06.109Z,89.30
2017-05-26T22:55:33.787Z,89.30
2017-05-26T22:58:01.444Z,89.10
2017-05-26T23:00:29.384Z,89.40
2017-05-26T23:02:57.040Z,89.60
2017-05-26T23:05:24.690Z,89.60
2017-05-26T23:07:52.376Z,89.10
2017-05-26T23:10:20.024Z,89.10
2017-05-26T23:12:47.977Z,89.70
2017-05-26T23:15:16.398Z,91.00
2017-05-26T23:17:44.057Z,90.40
2017-05-26T23:20:12.509Z,90.80
2017-05-26T23:22:40.161Z,90.80
2017-05-26T23:25:08.092Z,91.00
2017-05-26T23:27:35.741Z,91.50
2017-05-26T23:30:04.169Z,91.20
2017-05-26T23:32:31.842Z,91.20
2017-05-26T23:34:59.509Z,91.40
2017-05-26T23:37:27.926Z,91.30
2017-05-26T23:39:56.086Z,91.30
2017-05-26T23:42:23.741Z,91.40
2017-05-26T23:44:51.388Z,92.00
2017-05-26T23:47:20.188Z,92.50
2017-05-26T23:49:48.612Z,92.50
2017-05-26T23:52:16.267Z,92.50
2017-05-26T23:54:44.701Z,92.60
2017-05-26T23:57:12.357Z,92.60
2017-05-26T23:59:40.328Z,92.70
